sensor_id;sensor_type;location;lat;lon;timestamp;pressure;altitude;pressure_sealevel;temperature;humidity
41218;BME280;26950;50.960;7.138;2024-02-23T00:01:41;98017.09;;;10.93;64.00
41218;BME280;26950;50.960;7.138;2024-02-23T00:04:07;98028.19;;;11.10;62.73
41218;BME280;26950;50.960;7.138;2024-02-23T00:06:34;98028.94;;;11.20;62.94
41218;BME280;26950;50.960;7.138;2024-02-23T00:09:01;98038.47;;;11.25;62.84
41218;BME280;26950;50.960;7.138;2024-02-23T00:11:29;98047.06;;;11.33;61.64
41218;BME280;26950;50.960;7.138;2024-02-23T00:13:55;98051.38;;;11.39;61.35
41218;BME280;26950;50.960;7.138;2024-02-23T00:16:22;98056.69;;;11.34;61.10
41218;BME280;26950;50.960;7.138;2024-02-23T00:18:48;98065.47;;;11.30;61.64
41218;BME280;26950;50.960;7.138;2024-02-23T00:21:15;98065.56;;;11.27;62.03
41218;BME280;26950;50.960;7.138;2024-02-23T00:23:42;98064.41;;;11.42;61.69
41218;BME280;26950;50.960;7.138;2024-02-23T00:26:08;98081.84;;;11.48;62.26
41218;BME280;26950;50.960;7.138;2024-02-23T00:28:36;98091.50;;;11.46;63.31
41218;BME280;26950;50.960;7.138;2024-02-23T00:31:03;98100.78;;;11.13;65.30
41218;BME280;26950;50.960;7.138;2024-02-23T00:33:29;98111.31;;;11.10;66.81
41218;BME280;26950;50.960;7.138;2024-02-23T00:35:56;98111.84;;;10.71;68.07
41218;BME280;26950;50.960;7.138;2024-02-23T00:38:23;98118.72;;;10.78;69.48
41218;BME280;26950;50.960;7.138;2024-02-23T00:40:49;98125.53;;;10.92;70.04
41218;BME280;26950;50.960;7.138;2024-02-23T00:43:16;98122.09;;;10.90;68.81
41218;BME280;26950;50.960;7.138;2024-02-23T00:45:44;98128.22;;;10.89;67.14
41218;BME280;26950;50.960;7.138;2024-02-23T00:48:10;98139.34;;;11.07;67.39
41218;BME280;26950;50.960;7.138;2024-02-23T00:50:38;98142.66;;;11.19;67.64
41218;BME280;26950;50.960;7.138;2024-02-23T00:53:04;98142.84;;;11.05;67.58
41218;BME280;26950;50.960;7.138;2024-02-23T00:55:31;98149.75;;;11.12;68.24
41218;BME280;26950;50.960;7.138;2024-02-23T00:57:57;98144.59;;;11.07;67.83
41218;BME280;26950;50.960;7.138;2024-02-23T01:00:25;98154.97;;;11.15;67.90
41218;BME280;26950;50.960;7.138;2024-02-23T01:02:53;98169.09;;;11.05;68.49
41218;BME280;26950;50.960;7.138;2024-02-23T01:05:19;98175.44;;;10.89;68.87
41218;BME280;26950;50.960;7.138;2024-02-23T01:07:46;98184.28;;;10.80;69.65
41218;BME280;26950;50.960;7.138;2024-02-23T01:10:13;98184.31;;;10.78;69.41
41218;BME280;26950;50.960;7.138;2024-02-23T01:12:40;98186.81;;;10.86;68.31
41218;BME280;26950;50.960;7.138;2024-02-23T01:15:06;98193.00;;;10.80;68.47
41218;BME280;26950;50.960;7.138;2024-02-23T01:17:33;98200.00;;;10.83;67.88
41218;BME280;26950;50.960;7.138;2024-02-23T01:20:01;98211.50;;;10.71;68.12
41218;BME280;26950;50.960;7.138;2024-02-23T01:22:28;98204.59;;;10.61;67.19
41218;BME280;26950;50.960;7.138;2024-02-23T01:24:54;98210.69;;;10.66;67.56
41218;BME280;26950;50.960;7.138;2024-02-23T01:27:21;98212.38;;;10.70;67.67
41218;BME280;26950;50.960;7.138;2024-02-23T01:29:47;98220.38;;;10.60;67.27
41218;BME280;26950;50.960;7.138;2024-02-23T01:32:14;98210.63;;;10.71;66.46
41218;BME280;26950;50.960;7.138;2024-02-23T01:34:40;98224.69;;;10.62;65.54
41218;BME280;26950;50.960;7.138;2024-02-23T01:37:08;98220.47;;;10.49;66.04
41218;BME280;26950;50.960;7.138;2024-02-23T01:39:35;98221.25;;;10.59;66.25
41218;BME280;26950;50.960;7.138;2024-02-23T01:42:01;98218.50;;;10.68;65.96
41218;BME280;26950;50.960;7.138;2024-02-23T01:44:28;98233.44;;;10.64;65.50
41218;BME280;26950;50.960;7.138;2024-02-23T01:46:54;98229.88;;;10.68;65.28
41218;BME280;26950;50.960;7.138;2024-02-23T01:49:21;98233.53;;;10.57;64.79
41218;BME280;26950;50.960;7.138;2024-02-23T01:51:54;98238.72;;;10.60;64.89
41218;BME280;26950;50.960;7.138;2024-02-23T01:54:23;98238.63;;;10.67;64.74
41218;BME280;26950;50.960;7.138;2024-02-23T01:56:50;98239.63;;;10.57;64.52
41218;BME280;26950;50.960;7.138;2024-02-23T01:59:18;98243.94;;;10.63;64.22
41218;BME280;26950;50.960;7.138;2024-02-23T02:01:45;98252.56;;;10.72;63.38
41218;BME280;26950;50.960;7.138;2024-02-23T02:04:12;98253.47;;;10.71;63.00
41218;BME280;26950;50.960;7.138;2024-02-23T02:06:39;98256.03;;;10.76;62.00
41218;BME280;26950;50.960;7.138;2024-02-23T02:09:06;98256.97;;;10.70;62.92
41218;BME280;26950;50.960;7.138;2024-02-23T02:11:34;98256.25;;;10.54;62.86
41218;BME280;26950;50.960;7.138;2024-02-23T02:14:00;98265.84;;;10.56;63.40
41218;BME280;26950;50.960;7.138;2024-02-23T02:16:27;98264.94;;;10.63;63.31
41218;BME280;26950;50.960;7.138;2024-02-23T02:18:53;98258.72;;;10.71;63.50
41218;BME280;26950;50.960;7.138;2024-02-23T02:21:20;98263.06;;;10.72;62.86
41218;BME280;26950;50.960;7.138;2024-02-23T02:23:50;98258.72;;;10.71;62.70
41218;BME280;26950;50.960;7.138;2024-02-23T02:26:16;98269.25;;;10.65;62.46
41218;BME280;26950;50.960;7.138;2024-02-23T02:28:45;98264.19;;;10.50;62.92
41218;BME280;26950;50.960;7.138;2024-02-23T02:31:12;98266.91;;;10.39;62.93
41218;BME280;26950;50.960;7.138;2024-02-23T02:33:39;98284.38;;;10.39;63.51
41218;BME280;26950;50.960;7.138;2024-02-23T02:36:06;98281.75;;;10.39;62.90
41218;BME280;26950;50.960;7.138;2024-02-23T02:38:33;98279.88;;;10.53;62.42
41218;BME280;26950;50.960;7.138;2024-02-23T02:40:59;98285.34;;;10.24;62.76
41218;BME280;26950;50.960;7.138;2024-02-23T02:43:26;98289.84;;;10.05;64.00
41218;BME280;26950;50.960;7.138;2024-02-23T02:45:54;98292.34;;;10.20;64.28
41218;BME280;26950;50.960;7.138;2024-02-23T02:48:22;98294.03;;;10.34;63.01
41218;BME280;26950;50.960;7.138;2024-02-23T02:50:48;98299.34;;;10.17;63.46
41218;BME280;26950;50.960;7.138;2024-02-23T02:53:16;98294.97;;;10.25;63.34
41218;BME280;26950;50.960;7.138;2024-02-23T02:55:43;98303.69;;;10.27;63.68
41218;BME280;26950;50.960;7.138;2024-02-23T02:58:11;98309.78;;;10.29;63.22
41218;BME280;26950;50.960;7.138;2024-02-23T03:00:38;98309.78;;;10.32;63.53
41218;BME280;26950;50.960;7.138;2024-02-23T03:03:06;98298.47;;;10.25;62.73
41218;BME280;26950;50.960;7.138;2024-02-23T03:05:32;98308.91;;;10.30;62.22
41218;BME280;26950;50.960;7.138;2024-02-23T03:07:59;98307.28;;;10.09;62.43
41218;BME280;26950;50.960;7.138;2024-02-23T03:10:25;98309.19;;;9.87;63.35
41218;BME280;26950;50.960;7.138;2024-02-23T03:12:52;98302.22;;;9.80;63.52
41218;BME280;26950;50.960;7.138;2024-02-23T03:15:18;98306.78;;;9.49;63.49
41218;BME280;26950;50.960;7.138;2024-02-23T03:17:45;98305.00;;;9.62;64.90
41218;BME280;26950;50.960;7.138;2024-02-23T03:20:15;98315.34;;;9.82;64.45
41218;BME280;26950;50.960;7.138;2024-02-23T03:22:41;98321.44;;;9.79;63.41
41218;BME280;26950;50.960;7.138;2024-02-23T03:25:08;98317.03;;;9.90;62.93
41218;BME280;26950;50.960;7.138;2024-02-23T03:27:36;98323.22;;;9.72;63.45
41218;BME280;26950;50.960;7.138;2024-02-23T03:30:04;98326.66;;;9.84;63.00
41218;BME280;26950;50.960;7.138;2024-02-23T03:32:31;98317.13;;;9.75;62.37
41218;BME280;26950;50.960;7.138;2024-02-23T03:35:02;98322.44;;;9.58;63.29
41218;BME280;26950;50.960;7.138;2024-02-23T03:37:30;98320.69;;;9.63;63.80
41218;BME280;26950;50.960;7.138;2024-02-23T03:39:57;98312.75;;;9.72;63.16
41218;BME280;26950;50.960;7.138;2024-02-23T03:42:24;98319.75;;;9.72;62.92
41218;BME280;26950;50.960;7.138;2024-02-23T03:44:51;98323.34;;;9.56;63.53
41218;BME280;26950;50.960;7.138;2024-02-23T03:47:17;98316.34;;;9.56;63.83
41218;BME280;26950;50.960;7.138;2024-02-23T03:49:44;98326.81;;;9.55;63.38
41218;BME280;26950;50.960;7.138;2024-02-23T03:52:10;98319.88;;;9.48;63.67
41218;BME280;26950;50.960;7.138;2024-02-23T03:54:38;98325.09;;;9.52;63.64
41218;BME280;26950;50.960;7.138;2024-02-23T03:57:05;98326.84;;;9.52;63.26
41218;BME280;26950;50.960;7.138;2024-02-23T03:59:31;98328.59;;;9.51;63.17
41218;BME280;26950;50.960;7.138;2024-02-23T04:01:58;98333.81;;;9.48;63.23
41218;BME280;26950;50.960;7.138;2024-02-23T04:04:25;98328.59;;;9.51;63.35
41218;BME280;26950;50.960;7.138;2024-02-23T04:06:51;98332.91;;;9.55;63.54
41218;BME280;26950;50.960;7.138;2024-02-23T04:09:18;98334.75;;;9.44;62.44
41218;BME280;26950;50.960;7.138;2024-02-23T04:11:47;98344.34;;;9.40;62.73
41218;BME280;26950;50.960;7.138;2024-02-23T04:14:13;98340.81;;;9.52;62.52
41218;BME280;26950;50.960;7.138;2024-02-23T04:16:40;98336.38;;;9.60;62.58
41218;BME280;26950;50.960;7.138;2024-02-23T04:19:06;98346.81;;;9.72;61.95
41218;BME280;26950;50.960;7.138;2024-02-23T04:21:33;98344.16;;;9.74;61.57
41218;BME280;26950;50.960;7.138;2024-02-23T04:23:59;98343.34;;;9.61;61.47
41218;BME280;26950;50.960;7.138;2024-02-23T04:26:26;98350.41;;;9.47;62.00
41218;BME280;26950;50.960;7.138;2024-02-23T04:28:54;98344.34;;;9.43;62.43
41218;BME280;26950;50.960;7.138;2024-02-23T04:31:20;98356.53;;;9.41;62.10
41218;BME280;26950;50.960;7.138;2024-02-23T04:33:47;98344.34;;;9.34;61.78
41218;BME280;26950;50.960;7.138;2024-02-23T04:36:13;98346.97;;;9.37;61.85
41218;BME280;26950;50.960;7.138;2024-02-23T04:38:41;98344.31;;;9.50;61.49
41218;BME280;26950;50.960;7.138;2024-02-23T04:41:09;98339.00;;;9.60;61.43
41218;BME280;26950;50.960;7.138;2024-02-23T04:43:35;98342.53;;;9.58;61.11
41218;BME280;26950;50.960;7.138;2024-02-23T04:46:03;98331.16;;;9.63;60.83
41218;BME280;26950;50.960;7.138;2024-02-23T04:48:29;98348.47;;;9.89;60.61
41218;BME280;26950;50.960;7.138;2024-02-23T04:50:57;98352.78;;;9.97;59.86
41218;BME280;26950;50.960;7.138;2024-02-23T04:53:23;98358.81;;;10.10;58.94
41218;BME280;26950;50.960;7.138;2024-02-23T04:55:50;98369.34;;;10.06;59.22
41218;BME280;26950;50.960;7.138;2024-02-23T04:58:16;98366.72;;;10.03;58.83
41218;BME280;26950;50.960;7.138;2024-02-23T05:00:43;98364.16;;;9.95;58.94
41218;BME280;26950;50.960;7.138;2024-02-23T05:03:11;98367.63;;;9.97;59.31
41218;BME280;26950;50.960;7.138;2024-02-23T05:05:38;98368.56;;;9.88;59.10
41218;BME280;26950;50.960;7.138;2024-02-23T05:08:05;98353.72;;;9.89;59.19
41218;BME280;26950;50.960;7.138;2024-02-23T05:10:32;98357.28;;;9.71;59.68
41218;BME280;26950;50.960;7.138;2024-02-23T05:12:58;98355.56;;;9.70;60.69
41218;BME280;26950;50.960;7.138;2024-02-23T05:15:25;98356.38;;;9.83;61.12
41218;BME280;26950;50.960;7.138;2024-02-23T05:17:51;98364.19;;;9.86;60.83
41218;BME280;26950;50.960;7.138;2024-02-23T05:20:19;98364.22;;;9.83;60.86
41218;BME280;26950;50.960;7.138;2024-02-23T05:22:46;98363.28;;;9.91;60.45
41218;BME280;26950;50.960;7.138;2024-02-23T05:25:12;98357.16;;;9.97;60.99
41218;BME280;26950;50.960;7.138;2024-02-23T05:27:39;98347.56;;;9.93;60.56
41218;BME280;26950;50.960;7.138;2024-02-23T05:30:06;98332.72;;;9.92;60.53
41218;BME280;26950;50.960;7.138;2024-02-23T05:32:33;98335.25;;;10.04;60.58
41218;BME280;26950;50.960;7.138;2024-02-23T05:35:00;98328.34;;;9.95;60.80
41218;BME280;26950;50.960;7.138;2024-02-23T05:37:28;98330.97;;;9.94;61.01
41218;BME280;26950;50.960;7.138;2024-02-23T05:39:54;98336.22;;;9.92;60.61
41218;BME280;26950;50.960;7.138;2024-02-23T05:42:21;98331.00;;;9.86;61.02
41218;BME280;26950;50.960;7.138;2024-02-23T05:44:47;98332.75;;;9.86;60.93
41218;BME280;26950;50.960;7.138;2024-02-23T05:47:14;98338.03;;;9.83;60.95
41218;BME280;26950;50.960;7.138;2024-02-23T05:49:41;98345.09;;;9.65;61.66
41218;BME280;26950;50.960;7.138;2024-02-23T05:52:07;98329.41;;;9.59;61.17
41218;BME280;26950;50.960;7.138;2024-02-23T05:54:36;98351.25;;;9.58;61.45
41218;BME280;26950;50.960;7.138;2024-02-23T05:57:02;98344.28;;;9.54;61.66
41218;BME280;26950;50.960;7.138;2024-02-23T05:59:30;98349.53;;;9.51;61.80
41218;BME280;26950;50.960;7.138;2024-02-23T06:01:57;98348.66;;;9.52;62.15
41218;BME280;26950;50.960;7.138;2024-02-23T06:04:23;98342.56;;;9.47;62.18
41218;BME280;26950;50.960;7.138;2024-02-23T06:06:50;98352.22;;;9.33;62.54
41218;BME280;26950;50.960;7.138;2024-02-23T06:09:16;98342.66;;;9.24;63.18
41218;BME280;26950;50.960;7.138;2024-02-23T06:11:45;98342.66;;;9.21;63.27
41218;BME280;26950;50.960;7.138;2024-02-23T06:14:12;98341.78;;;9.17;63.88
41218;BME280;26950;50.960;7.138;2024-02-23T06:16:39;98345.28;;;9.16;63.12
41218;BME280;26950;50.960;7.138;2024-02-23T06:19:06;98349.66;;;9.14;63.38
41218;BME280;26950;50.960;7.138;2024-02-23T06:21:33;98352.31;;;9.11;63.51
41218;BME280;26950;50.960;7.138;2024-02-23T06:23:59;98354.03;;;9.18;63.75
41218;BME280;26950;50.960;7.138;2024-02-23T06:26:26;98347.00;;;9.24;63.46
41218;BME280;26950;50.960;7.138;2024-02-23T06:28:54;98334.78;;;9.29;63.50
41218;BME280;26950;50.960;7.138;2024-02-23T06:31:20;98336.50;;;9.36;63.19
41218;BME280;26950;50.960;7.138;2024-02-23T06:33:47;98329.56;;;9.30;62.51
41218;BME280;26950;50.960;7.138;2024-02-23T06:36:14;98333.03;;;9.28;63.26
41218;BME280;26950;50.960;7.138;2024-02-23T06:38:41;98328.66;;;9.34;63.08
41218;BME280;26950;50.960;7.138;2024-02-23T06:41:07;98331.22;;;9.48;61.85
41218;BME280;26950;50.960;7.138;2024-02-23T06:43:36;98344.38;;;9.33;62.35
41218;BME280;26950;50.960;7.138;2024-02-23T06:46:06;98345.28;;;9.24;62.23
41218;BME280;26950;50.960;7.138;2024-02-23T06:48:33;98342.69;;;9.09;63.27
41218;BME280;26950;50.960;7.138;2024-02-23T06:51:00;98345.25;;;9.23;63.84
41218;BME280;26950;50.960;7.138;2024-02-23T06:53:26;98343.56;;;9.18;62.91
41218;BME280;26950;50.960;7.138;2024-02-23T06:55:53;98346.19;;;9.18;63.42
41218;BME280;26950;50.960;7.138;2024-02-23T06:58:19;98338.34;;;9.12;63.41
41218;BME280;26950;50.960;7.138;2024-02-23T07:00:46;98342.75;;;8.90;64.61
41218;BME280;26950;50.960;7.138;2024-02-23T07:03:14;98338.41;;;8.93;65.07
41218;BME280;26950;50.960;7.138;2024-02-23T07:05:42;98334.88;;;9.01;65.25
41218;BME280;26950;50.960;7.138;2024-02-23T07:08:08;98341.88;;;8.93;65.48
41218;BME280;26950;50.960;7.138;2024-02-23T07:10:35;98346.25;;;8.86;65.77
41218;BME280;26950;50.960;7.138;2024-02-23T07:13:01;98345.38;;;8.84;66.30
41218;BME280;26950;50.960;7.138;2024-02-23T07:15:28;98341.84;;;9.04;65.75
41218;BME280;26950;50.960;7.138;2024-02-23T07:17:55;98337.44;;;9.10;66.19
41218;BME280;26950;50.960;7.138;2024-02-23T07:20:23;98348.75;;;9.28;64.64
41218;BME280;26950;50.960;7.138;2024-02-23T07:22:49;98352.19;;;9.39;65.32
41218;BME280;26950;50.960;7.138;2024-02-23T07:25:16;98347.78;;;9.56;64.06
41218;BME280;26950;50.960;7.138;2024-02-23T07:27:43;98348.50;;;9.80;63.16
41218;BME280;26950;50.960;7.138;2024-02-23T07:30:10;98341.47;;;9.86;62.40
41218;BME280;26950;50.960;7.138;2024-02-23T07:32:37;98348.44;;;9.95;62.73
41218;BME280;26950;50.960;7.138;2024-02-23T07:35:04;98334.38;;;10.08;61.36
41218;BME280;26950;50.960;7.138;2024-02-23T07:37:32;98333.47;;;10.14;60.78
41218;BME280;26950;50.960;7.138;2024-02-23T07:39:59;98343.16;;;9.98;60.99
41218;BME280;26950;50.960;7.138;2024-02-23T07:42:25;98339.59;;;10.10;61.13
41218;BME280;26950;50.960;7.138;2024-02-23T07:44:52;98338.81;;;9.97;60.15
41218;BME280;26950;50.960;7.138;2024-02-23T07:47:19;98343.22;;;9.86;61.10
41218;BME280;26950;50.960;7.138;2024-02-23T07:49:45;98340.63;;;9.84;61.16
41218;BME280;26950;50.960;7.138;2024-02-23T07:52:11;98335.41;;;9.80;60.91
41218;BME280;26950;50.960;7.138;2024-02-23T07:54:39;98331.88;;;9.90;61.28
41218;BME280;26950;50.960;7.138;2024-02-23T07:57:06;98339.81;;;9.75;60.96
41218;BME280;26950;50.960;7.138;2024-02-23T07:59:32;98338.22;;;9.49;62.44
41218;BME280;26950;50.960;7.138;2024-02-23T08:01:59;98346.84;;;9.60;62.21
41218;BME280;26950;50.960;7.138;2024-02-23T08:04:25;98345.09;;;9.65;62.38
41218;BME280;26950;50.960;7.138;2024-02-23T08:06:52;98341.56;;;9.77;62.23
41218;BME280;26950;50.960;7.138;2024-02-23T08:09:18;98343.31;;;9.72;63.02
41218;BME280;26950;50.960;7.138;2024-02-23T08:11:48;98349.31;;;9.95;62.08
41218;BME280;26950;50.960;7.138;2024-02-23T08:14:16;98356.16;;;10.12;61.34
41218;BME280;26950;50.960;7.138;2024-02-23T08:16:43;98356.13;;;10.21;60.72
41218;BME280;26950;50.960;7.138;2024-02-23T08:19:09;98362.13;;;10.37;60.59
41218;BME280;26950;50.960;7.138;2024-02-23T08:21:37;98370.91;;;10.34;60.19
41218;BME280;26950;50.960;7.138;2024-02-23T08:24:04;98369.97;;;10.41;59.70
41218;BME280;26950;50.960;7.138;2024-02-23T08:26:31;98378.81;;;10.31;59.80
41218;BME280;26950;50.960;7.138;2024-02-23T08:29:00;98372.69;;;10.32;60.37
41218;BME280;26950;50.960;7.138;2024-02-23T08:31:27;98369.22;;;10.22;59.93
41218;BME280;26950;50.960;7.138;2024-02-23T08:33:54;98364.16;;;9.95;60.17
41218;BME280;26950;50.960;7.138;2024-02-23T08:36:20;98373.75;;;9.96;61.03
41218;BME280;26950;50.960;7.138;2024-02-23T08:38:47;98370.19;;;10.05;61.12
41218;BME280;26950;50.960;7.138;2024-02-23T08:41:13;98370.09;;;10.27;60.13
41218;BME280;26950;50.960;7.138;2024-02-23T08:43:40;98376.16;;;10.37;59.11
41218;BME280;26950;50.960;7.138;2024-02-23T08:46:08;98370.09;;;10.27;60.13
41218;BME280;26950;50.960;7.138;2024-02-23T08:48:34;98377.13;;;10.12;59.52
41218;BME280;26950;50.960;7.138;2024-02-23T08:51:01;98372.78;;;10.09;60.20
41218;BME280;26950;50.960;7.138;2024-02-23T08:53:27;98374.44;;;10.32;59.31
41218;BME280;26950;50.960;7.138;2024-02-23T08:55:54;98378.72;;;10.42;59.26
41218;BME280;26950;50.960;7.138;2024-02-23T08:58:20;98385.56;;;10.63;59.37
41218;BME280;26950;50.960;7.138;2024-02-23T09:00:47;98369.72;;;10.73;58.21
41218;BME280;26950;50.960;7.138;2024-02-23T09:03:15;98376.66;;;10.82;57.91
41218;BME280;26950;50.960;7.138;2024-02-23T09:05:41;98380.13;;;10.81;57.34
41218;BME280;26950;50.960;7.138;2024-02-23T09:08:08;98388.00;;;10.79;57.52
41218;BME280;26950;50.960;7.138;2024-02-23T09:10:34;98388.06;;;10.76;57.11
41218;BME280;26950;50.960;7.138;2024-02-23T09:13:01;98391.63;;;10.66;57.77
41218;BME280;26950;50.960;7.138;2024-02-23T09:15:28;98387.03;;;10.94;57.89
41218;BME280;26950;50.960;7.138;2024-02-23T09:17:55;98380.56;;;11.24;57.08
41218;BME280;26950;50.960;7.138;2024-02-23T09:20:23;98384.00;;;11.32;56.57
41218;BME280;26950;50.960;7.138;2024-02-23T09:22:49;98386.44;;;11.49;55.88
41218;BME280;26950;50.960;7.138;2024-02-23T09:25:16;98389.94;;;11.51;55.60
41218;BME280;26950;50.960;7.138;2024-02-23T09:27:42;98397.06;;;11.39;55.46
41218;BME280;26950;50.960;7.138;2024-02-23T09:30:11;98387.75;;;11.08;55.95
41218;BME280;26950;50.960;7.138;2024-02-23T09:32:37;98402.84;;;10.84;55.98
41218;BME280;26950;50.960;7.138;2024-02-23T09:35:04;98402.78;;;10.94;56.14
41218;BME280;26950;50.960;7.138;2024-02-23T09:37:33;98393.91;;;11.04;55.31
41218;BME280;26950;50.960;7.138;2024-02-23T09:39:59;98396.44;;;11.12;56.24
41218;BME280;26950;50.960;7.138;2024-02-23T09:42:28;98392.72;;;11.34;56.12
41218;BME280;26950;50.960;7.138;2024-02-23T09:44:58;98396.44;;;11.15;55.32
41218;BME280;26950;50.960;7.138;2024-02-23T09:47:26;98397.38;;;11.10;55.72
41218;BME280;26950;50.960;7.138;2024-02-23T09:49:54;98379.88;;;11.08;56.00
41218;BME280;26950;50.960;7.138;2024-02-23T09:52:21;98381.44;;;11.26;56.91
41218;BME280;26950;50.960;7.138;2024-02-23T09:54:49;98382.03;;;11.50;54.25
41218;BME280;26950;50.960;7.138;2024-02-23T09:57:16;98387.34;;;11.44;54.82
41218;BME280;26950;50.960;7.138;2024-02-23T09:59:44;98381.16;;;11.52;54.94
41218;BME280;26950;50.960;7.138;2024-02-23T10:02:14;98386.19;;;11.71;54.46
41218;BME280;26950;50.960;7.138;2024-02-23T10:04:42;98387.06;;;11.68;53.48
41218;BME280;26950;50.960;7.138;2024-02-23T10:07:09;98380.97;;;11.69;54.01
41218;BME280;26950;50.960;7.138;2024-02-23T10:09:36;98386.97;;;11.77;54.21
41218;BME280;26950;50.960;7.138;2024-02-23T10:12:06;98405.97;;;11.99;54.03
41218;BME280;26950;50.960;7.138;2024-02-23T10:14:32;98392.81;;;12.02;53.08
41218;BME280;26950;50.960;7.138;2024-02-23T10:16:59;98403.22;;;12.10;52.93
41218;BME280;26950;50.960;7.138;2024-02-23T10:19:27;98398.97;;;12.01;52.46
41218;BME280;26950;50.960;7.138;2024-02-23T10:21:55;98391.88;;;12.08;52.32
41218;BME280;26950;50.960;7.138;2024-02-23T10:24:22;98406.78;;;12.07;52.18
41218;BME280;26950;50.960;7.138;2024-02-23T10:26:50;98404.19;;;12.03;52.41
41218;BME280;26950;50.960;7.138;2024-02-23T10:29:18;98411.31;;;11.95;52.04
41218;BME280;26950;50.960;7.138;2024-02-23T10:31:47;98403.28;;;12.05;52.60
41218;BME280;26950;50.960;7.138;2024-02-23T10:34:17;98407.31;;;12.29;51.60
41218;BME280;26950;50.960;7.138;2024-02-23T10:36:45;98399.69;;;12.11;52.21
41218;BME280;26950;50.960;7.138;2024-02-23T10:39:15;98404.13;;;12.09;52.17
41218;BME280;26950;50.960;7.138;2024-02-23T10:41:47;98408.50;;;12.08;52.12
41218;BME280;26950;50.960;7.138;2024-02-23T10:44:16;98402.38;;;12.06;52.20
41218;BME280;26950;50.960;7.138;2024-02-23T10:46:45;98395.78;;;12.39;52.46
41218;BME280;26950;50.960;7.138;2024-02-23T10:49:14;98401.56;;;13.12;52.45
41218;BME280;26950;50.960;7.138;2024-02-23T10:51:42;98392.09;;;13.95;50.63
41218;BME280;26950;50.960;7.138;2024-02-23T10:54:09;98389.25;;;14.04;48.73
41218;BME280;26950;50.960;7.138;2024-02-23T10:56:37;98396.38;;;14.39;48.98
41218;BME280;26950;50.960;7.138;2024-02-23T10:59:04;98400.78;;;14.39;47.53
41218;BME280;26950;50.960;7.138;2024-02-23T11:01:33;98405.75;;;14.54;47.52
41218;BME280;26950;50.960;7.138;2024-02-23T11:04:02;98394.59;;;14.01;47.23
41218;BME280;26950;50.960;7.138;2024-02-23T11:06:29;98400.66;;;13.64;46.95
41218;BME280;26950;50.960;7.138;2024-02-23T11:09:04;98404.25;;;13.11;48.62
41218;BME280;26950;50.960;7.138;2024-02-23T11:11:32;98392.50;;;13.30;50.58
41218;BME280;26950;50.960;7.138;2024-02-23T11:14:02;98400.16;;;13.87;49.58
41218;BME280;26950;50.960;7.138;2024-02-23T11:16:31;98395.72;;;14.29;47.38
41218;BME280;26950;50.960;7.138;2024-02-23T11:19:05;98403.91;;;14.17;46.05
41218;BME280;26950;50.960;7.138;2024-02-23T11:21:33;98400.91;;;13.94;46.03
41218;BME280;26950;50.960;7.138;2024-02-23T11:24:03;98392.47;;;13.78;46.87
41218;BME280;26950;50.960;7.138;2024-02-23T11:26:29;98396.50;;;13.51;47.09
41218;BME280;26950;50.960;7.138;2024-02-23T11:28:57;98396.75;;;13.37;47.31
41218;BME280;26950;50.960;7.138;2024-02-23T11:31:28;98395.91;;;13.37;47.93
41218;BME280;26950;50.960;7.138;2024-02-23T11:33:56;98405.69;;;13.30;48.49
41218;BME280;26950;50.960;7.138;2024-02-23T11:36:29;98405.34;;;12.98;49.34
41218;BME280;26950;50.960;7.138;2024-02-23T11:38:57;98397.38;;;12.51;50.06
41218;BME280;26950;50.960;7.138;2024-02-23T11:41:25;98403.69;;;12.36;50.96
41218;BME280;26950;50.960;7.138;2024-02-23T11:43:52;98400.84;;;12.50;50.80
41218;BME280;26950;50.960;7.138;2024-02-23T11:46:20;98399.91;;;12.56;50.86
41218;BME280;26950;50.960;7.138;2024-02-23T11:48:47;98409.53;;;12.58;51.66
41218;BME280;26950;50.960;7.138;2024-02-23T11:51:19;98399.59;;;12.74;51.10
41218;BME280;26950;50.960;7.138;2024-02-23T11:53:47;98402.81;;;12.37;50.87
41218;BME280;26950;50.960;7.138;2024-02-23T11:56:14;98401.06;;;12.36;51.83
41218;BME280;26950;50.960;7.138;2024-02-23T11:58:41;98398.22;;;12.50;51.52
41218;BME280;26950;50.960;7.138;2024-02-23T12:01:08;98380.63;;;12.55;51.72
41218;BME280;26950;50.960;7.138;2024-02-23T12:03:35;98397.94;;;12.70;50.86
41218;BME280;26950;50.960;7.138;2024-02-23T12:06:03;98392.66;;;12.72;50.80
41218;BME280;26950;50.960;7.138;2024-02-23T12:08:31;98383.94;;;12.66;50.42
41218;BME280;26950;50.960;7.138;2024-02-23T12:11:05;98375.25;;;12.61;50.20
41218;BME280;26950;50.960;7.138;2024-02-23T12:13:33;98389.47;;;12.50;50.58
41218;BME280;26950;50.960;7.138;2024-02-23T12:16:00;98395.50;;;12.56;49.67
41218;BME280;26950;50.960;7.138;2024-02-23T12:18:27;98383.91;;;12.68;50.57
41218;BME280;26950;50.960;7.138;2024-02-23T12:20:59;98385.78;;;12.61;50.54
41218;BME280;26950;50.960;7.138;2024-02-23T12:23:25;98390.25;;;12.58;51.47
41218;BME280;26950;50.960;7.138;2024-02-23T12:25:52;98389.28;;;12.62;50.95
41218;BME280;26950;50.960;7.138;2024-02-23T12:28:21;98383.13;;;12.63;51.88
41218;BME280;26950;50.960;7.138;2024-02-23T12:30:59;98392.03;;;12.54;51.88
41218;BME280;26950;50.960;7.138;2024-02-23T12:33:27;98393.06;;;12.46;51.42
41218;BME280;26950;50.960;7.138;2024-02-23T12:35:54;98389.50;;;12.48;51.09
41218;BME280;26950;50.960;7.138;2024-02-23T12:38:20;98388.13;;;12.80;50.92
41218;BME280;26950;50.960;7.138;2024-02-23T12:40:47;98395.84;;;12.90;50.82
41218;BME280;26950;50.960;7.138;2024-02-23T12:43:13;98383.56;;;12.89;50.30
41218;BME280;26950;50.960;7.138;2024-02-23T12:45:42;98392.34;;;12.88;50.09
41218;BME280;26950;50.960;7.138;2024-02-23T12:48:09;98397.88;;;12.73;50.30
41218;BME280;26950;50.960;7.138;2024-02-23T12:50:35;98395.19;;;12.78;50.20
41218;BME280;26950;50.960;7.138;2024-02-23T12:53:02;98395.09;;;12.82;49.88
41218;BME280;26950;50.960;7.138;2024-02-23T12:55:29;98390.50;;;12.93;49.78
41218;BME280;26950;50.960;7.138;2024-02-23T12:57:56;98385.13;;;13.01;49.53
41218;BME280;26950;50.960;7.138;2024-02-23T13:00:22;98379.66;;;13.12;49.91
41218;BME280;26950;50.960;7.138;2024-02-23T13:02:50;98370.84;;;13.13;49.97
41218;BME280;26950;50.960;7.138;2024-02-23T13:05:17;98384.03;;;12.62;50.16